ADDS TAF Board (Experimental) INFO Settings
IDs: Format: Expanded Condensed

KMIA - Miami Intl, FL, US

Issued at 0947 UTC 30 Aug 2015
Updated at: 0952 UTC 30 Aug 2015
Time0948Z 30/10Z 30/11Z 30/12Z 30/13Z 30/14Z 30/15Z 30/16Z 30/17Z 30/18Z 30/19Z 30/20Z 30/21Z 30/22Z
Type OBS PRVL
  [TEMP]  
PRVL
  [TEMP]  
PRVL PRVL PRVL PRVL PRVL PRVL PRVL PRVL PRVL PRVL PRVL
VIS 10 >6
  [1]  
>6
  [1]  
>6 >6 >6 >6 >6 >6 >6 >6 >6 >6 >6
CIG 33 50
  [25]  
50
  [25]  
50 50 50 50 50 50 50 50 50 50 50
Cover OVC BKN
  [BKN]  
BKN
  [BKN]  
BKN BKN BKN BKN BKN BKN BKN BKN BKN BKN BKN
FltCat VFR VFR
  [IFR]  
VFR
  [IFR]  
VFR VFR VFR VFR VFR VFR VFR VFR VFR VFR VFR
WX -TSRA SHRA VCTS
  [TSRA BR]  
SHRA VCTS
  [TSRA BR]  
SHRA VCTS SHRA VCTS SHRA VCTS SHRA VCTS SHRA VCTS SHRA VCTS SHRA VCTS SHRA VCTS SHRA VCTS SHRA VCTS SHRA VCTS
WDir 60 80
[VRB]
80
[VRB]
80 80 140 140 140 150 150 150 150 150 150
WSpd 8 10
  [15]  
10
  [15]  
10 10 15 15 15 15 15 15 15 15 15
WGst -- --
  [30]  
--
  [30]  
-- -- -- -- -- -- -- -- -- -- --
R08/26
XWnd 4 1 1 1 1 -12 -12 -12 -13 -13 -13 -13 -13 -13
XGst -- 0 0 -- -- -- -- -- -- -- -- -- -- --
HWnd 7 10 10 10 10 9 9 9 7 7 7 7 7 7
HGst -- 0 0 -- -- -- -- -- -- -- -- -- -- --
R09/27
XWnd 4 1 1 1 1 -12 -12 -12 -13 -13 -13 -13 -13 -13
XGst -- 0 0 -- -- -- -- -- -- -- -- -- -- --
HWnd 7 10 10 10 10 9 9 9 7 7 7 7 7 7
HGst -- 0 0 -- -- -- -- -- -- -- -- -- -- --
R12/30
XWnd 7 6 6 6 6 -5 -5 -5 -8 -8 -8 -8 -8 -8
XGst -- 0 0 -- -- -- -- -- -- -- -- -- -- --
HWnd 4 8 8 8 8 14 14 14 13 13 13 13 13 13
HGst -- 0 0 -- -- -- -- -- -- -- -- -- -- --

NOTE: TEMPO conditions in [brackets]. Keep in mind TEMPO conditions might be better (lower impact) than prevailing conditions.

Raw TAF
KMIA 300947Z 3010/3106 08010KT P6SM SHRA VCTS SCT020CB BKN050
  TEMPO 3010/3012 VRB15G30KT 1SM TSRA BR BKN025CB
  FM301400 14015KT P6SM SHRA VCTS SCT025CB BKN050
  FM301700 15015KT P6SM SHRA VCTS SCT025CB BKN050
  FM302300 14010KT P6SM SHRA VCTS SCT025CB
  PROB30 3023/3105 VRB10G20KT TSRA BKN025CB


Raw METAR
KMIA 300948Z 06008KT 10SM -TSRA SCT019 BKN033CB OVC080 24/24 A2995 RMK AO2 PK WND 11028/0930 FRQ LTGIC SW-NW-N TS SW-NW-N MOV NW CB DSNT N-NE AND SW P0062 $
KMIA 300938Z COR 04020G28KT 1/2SM +TSRA FG SCT008 BKN024CB OVC045 26/26 A2995 RMK AO2 PK WND 11028/0930 FRQ LTGICCG OHD AND SW TS OHD AND SW MOV NW CB DSNT N-NE AND SW P0038 T02610256 $
KMIA 300934Z 09017G28KT 1 1/2SM +TSRA BR BKN024CB BKN055 OVC080 26/26 A2997 RMK AO2 PK WND 11028/0930 PRESRR FRQ LTGIC OHD AND SW TS OHD AND SW MOV NW CB DSNT N-NE AND SW P0011 T02610256 $
KMIA 300853Z COR 15006KT 6SM TSRA BR SCT017 BKN024CB OVC060 26/26 A2994 RMK AO2 SLP139 CONS LTGICCACG OHD-NE-SE-SW TS OHD-NE-SE-SW MOV NW CB N MOV NW CB DSNT NW-N MOV NW P0005 60173 T02610256 58004 $
KMIA 300815Z 07006KT 5SM -TSRA FEW015 BKN025CB OVC080 25/24 A2994 RMK AO2 CONS LTGICCG S-SW TS S-SW MOV NW CB DSNT NW-N MOV NW P0001 T02500239 $
KMIA 300753Z 09008KT 6SM -TSRA BR FEW020 BKN035CB OVC080 25/24 A2993 RMK AO2 SLP137 CONS LTGICCA OHD-NW-NE TS OHD-NW-NE MOV NW 98346 P0088 T02500244 $
KMIA 300746Z 08008KT 5SM TSRA BR FEW015 BKN031CB OVC080 25/24 A2994 RMK AO2 CONS LTGICCA OHD-NW-NE TS OHD-NW-NE MOV NW P0088 T02500244 $
KMIA 300738Z 08008KT 2SM +TSRA BR FEW012 BKN028CB OVC075 25/24 A2995 RMK AO2 CONS LTGICCA ALQDS TS ALQDS MOV NW P0085 T02500239 $
KMIA 300727Z 10006KT 3/4SM +TSRA BR FEW012 BKN028CB OVC075 24/23 A2996 RMK AO2 CONS LTGICCA ALQDS TS ALQDS MOV NW P0066 T02440233 $
KMIA 300710Z COR 00000KT 1SM +TSRA FEW014 BKN025CB OVC040 24/ A2999 RMK AO2 CONS LTGICCA ALQDS TS ALQDS MOV NW P0017 T0244 $
KMIA 300653Z COR 22010KT 1 1/2SM +TSRA BR FEW007 BKN025CB OVC040 25/24 A2997 RMK AO2 RAB0559 SLP148 CONS LTGICCA OHD-S-W-N TS OHD-S-W-N MOV NW CB DSNT ALQDS MOV NW P0080 T02500239
KMIA 300650Z 22009KT 1 1/2SM +TSRA BR FEW007 BKN025CB OVC040 25/24 A2996 RMK AO2 RAB0559 TSE21B25 CONS LTGICCA OHD-S-W-N TS OHD-S-W-N MOV NW CB DSNT ALQDS MOV NW P0073
KMIA 300643Z COR 18008KT 3SM -TSRA BR FEW007 BKN023CB OVC028 25/24 A2996 RMK AO2 RAB0559 CONS LTGICCA OHD-S-W-N TS OHD-S-W-N MOV NW CB DSNT ALQDS MOV NW P0066 T02500239
KMIA 300632Z 17014G22KT 2SM +TSRA BR FEW007 BKN013CB OVC019 26/25 A2996 RMK AO2 RAB0559 TSE21B25 CONS LTGIC OHD-SW-NW TS OHD-SW-NW MOV NW CB DSNT ALQDS MOV NW P0063 T02560250

METAR Board
Radar Display
Forecast Discussion

TAF Board Legend

Potential Impact
Threat None Slight Moderate High
Visibility (sm) ≥5.1 5.1>X≥3 3>X≥1 <1
Ceiling (100 ft) ≥30.1 30.1>X≥10 10>X≥5 <5
Wind Speed (kt) <10 10≤X<20 20≤X<30 ≥30
Wind Gust (kt) <15 15≤X<25 25≤X<35 ≥35
Weather No Wx Reported VCTS,-TS,-FZRA,SN TS,FZRA +TS,+FZRA,+SN